Time;durP1;ratioP1;P1;durP2;ratioP2;P2;SDS_P1;SDS_P2;PMS_P1;PMS_P2;Temp;Humidity;BMP_temperature;BMP_pressure;BME280_temperature;BME280_humidity;BME280_pressure;Samples;Min_cycle;Max_cycle;Signal;HPM_P1;HPM_P2
2022/05/23 00:00:47;;;;;;;6.72;2.75;;;;;;;-145.76;100.00;65039.31;4930753;28;20212;-70
2022/05/23 00:03:13;;;;;;;12.93;3.03;;;;;;;-145.76;100.00;65039.31;4947820;28;20160;-70
2022/05/23 00:05:39;;;;;;;9.60;4.03;;;;;;;-145.76;100.00;65039.31;4933399;28;20054;-70
2022/05/23 00:08:05;;;;;;;8.18;3.40;;;;;;;-145.76;100.00;65039.31;4923934;28;20064;-70
2022/05/23 00:10:30;;;;;;;9.75;4.30;;;;;;;-145.76;100.00;65039.31;4944731;28;20034;-70
2022/05/23 00:12:56;;;;;;;8.18;2.95;;;;;;;-145.76;100.00;65039.31;4931039;28;20053;-70
2022/05/23 00:15:21;;;;;;;12.57;2.90;;;;;;;-145.76;100.00;65039.31;4946861;28;20037;-70
2022/05/23 00:17:47;;;;;;;7.65;3.38;;;;;;;-145.76;100.00;65039.31;4930972;28;20065;-70
2022/05/23 00:20:15;;;;;;;6.88;3.13;;;;;;;-145.76;100.00;65039.31;4944387;28;20034;-70
2022/05/23 00:22:40;;;;;;;7.72;3.38;;;;;;;-145.76;100.00;65039.31;4930631;28;21107;-71
2022/05/23 00:25:07;;;;;;;10.85;3.45;;;;;;;-145.76;100.00;65039.31;4946036;28;20049;-70
2022/05/23 00:27:34;;;;;;;10.88;3.55;;;;;;;-145.76;100.00;65039.31;4930422;28;20125;-70
2022/05/23 00:30:00;;;;;;;9.57;3.80;;;;;;;-145.76;100.00;65039.31;4945645;28;20098;-70
2022/05/23 00:35:18;;;;;;;9.55;3.53;;;;;;;-145.76;100.00;65039.31;4930703;28;20156;-69
2022/05/23 00:37:45;;;;;;;8.20;3.85;;;;;;;-145.76;100.00;65039.31;4945484;28;20034;-69
2022/05/23 00:44:05;;;;;;;6.75;3.88;;;;;;;-145.76;100.00;65039.31;4942408;28;20046;-69
2022/05/23 00:46:31;;;;;;;7.68;4.00;;;;;;;-145.76;100.00;65039.31;4944625;28;20046;-69
2022/05/23 00:49:04;;;;;;;10.82;3.85;;;;;;;-145.76;100.00;65039.31;4929897;28;20146;-69
2022/05/23 00:51:30;;;;;;;11.77;4.50;;;;;;;-145.76;100.00;65039.31;4928183;28;20636;-70
2022/05/23 00:53:58;;;;;;;18.17;5.93;;;;;;;-145.76;100.00;65039.31;4940337;28;20096;-69
2022/05/23 00:56:26;;;;;;;10.32;4.00;;;;;;;-145.76;100.00;65039.31;4926901;28;23842;-70
2022/05/23 00:58:54;;;;;;;7.80;4.32;;;;;;;-145.76;100.00;65039.31;4943134;28;20046;-70
2022/05/23 01:01:27;;;;;;;10.40;4.70;;;;;;;-145.76;100.00;65039.31;4909631;28;20133;-69
2022/05/23 01:03:53;;;;;;;8.95;4.40;;;;;;;-145.76;100.00;65039.31;4938818;28;21009;-69
2022/05/23 01:06:18;;;;;;;7.95;4.38;;;;;;;-145.76;100.00;65039.31;4928712;28;20042;-69
2022/05/23 01:08:45;;;;;;;9.13;4.15;;;;;;;-145.76;100.00;65039.31;4943418;28;20124;-69
2022/05/23 01:11:11;;;;;;;9.75;4.90;;;;;;;-145.76;100.00;65039.31;4940812;28;20126;-70
2022/05/23 01:13:37;;;;;;;6.75;4.50;;;;;;;-145.76;100.00;65039.31;4927367;28;23917;-69
2022/05/23 01:16:03;;;;;;;11.30;5.50;;;;;;;-145.76;100.00;65039.31;4943554;28;20034;-70
2022/05/23 01:18:28;;;;;;;10.95;5.38;;;;;;;-145.76;100.00;65039.31;4927847;28;20052;-69
2022/05/23 01:20:56;;;;;;;12.07;5.80;;;;;;;-145.76;100.00;65039.31;4940462;28;20034;-69
2022/05/23 01:23:37;;;;;;;13.27;6.07;;;;;;;-145.76;100.00;65039.31;4924675;28;20039;-69
2022/05/23 01:26:04;;;;;;;13.85;6.57;;;;;;;-145.76;100.00;65039.31;4942357;28;20042;-68
2022/05/23 01:28:39;;;;;;;15.55;6.75;;;;;;;-145.76;100.00;65039.31;4926864;28;20065;-70
2022/05/23 01:31:06;;;;;;;10.93;6.00;;;;;;;-145.76;100.00;65039.31;4942941;28;20481;-68
2022/05/23 01:33:31;;;;;;;10.30;5.95;;;;;;;-145.76;100.00;65039.31;4943762;28;20049;-69
2022/05/23 01:35:57;;;;;;;8.70;6.53;;;;;;;-145.76;100.00;65039.31;4925802;28;20042;-69
2022/05/23 01:38:26;;;;;;;9.45;6.25;;;;;;;-145.76;100.00;65039.31;4941828;28;20037;-69
2022/05/23 01:40:51;;;;;;;11.90;6.97;;;;;;;-145.76;100.00;65039.31;4928412;28;20077;-69
2022/05/23 01:43:17;;;;;;;9.50;7.22;;;;;;;-145.76;100.00;65039.31;4944226;28;20076;-69
2022/05/23 01:45:42;;;;;;;12.65;7.40;;;;;;;-145.76;100.00;65039.31;4926135;28;20956;-69
2022/05/23 01:48:08;;;;;;;10.10;7.53;;;;;;;-145.76;100.00;65039.31;4946367;28;20034;-69
2022/05/23 01:50:34;;;;;;;12.50;8.05;;;;;;;-145.76;100.00;65039.31;4925031;28;20607;-69
2022/05/23 01:53:00;;;;;;;12.68;8.20;;;;;;;-145.76;100.00;65039.31;4946996;28;20046;-69
2022/05/23 01:55:26;;;;;;;13.27;8.57;;;;;;;-145.76;100.00;65039.31;4945750;28;20112;-68
2022/05/23 01:57:51;;;;;;;11.90;7.30;;;;;;;-145.76;100.00;65039.31;4933729;28;20050;-69
2022/05/23 02:03:02;;;;;;;13.65;7.70;;;;;;;-145.76;100.00;65039.31;4931602;28;20493;-69
2022/05/23 02:05:28;;;;;;;13.73;7.72;;;;;;;-145.76;100.00;65039.31;4947720;28;20034;-69
2022/05/23 02:07:54;;;;;;;10.80;6.60;;;;;;;-145.76;100.00;65039.31;4933459;28;20068;-69
2022/05/23 02:10:20;;;;;;;15.75;7.63;;;;;;;-145.76;100.00;65039.31;4947753;28;20077;-70
2022/05/23 02:12:46;;;;;;;8.93;6.57;;;;;;;-145.76;100.00;65039.31;4933100;28;20034;-69
2022/05/23 02:15:12;;;;;;;12.90;6.90;;;;;;;-145.76;100.00;65039.31;4906625;28;20216;-70
2022/05/23 02:17:37;;;;;;;9.70;6.90;;;;;;;-145.76;100.00;65039.31;4945240;28;20544;-69
2022/05/23 02:20:04;;;;;;;10.85;6.30;;;;;;;-145.76;100.00;65039.31;4935462;28;25377;-69
2022/05/23 02:22:30;;;;;;;10.30;6.45;;;;;;;-145.76;100.00;65039.31;4947678;28;20508;-69
2022/05/23 02:24:55;;;;;;;10.75;6.45;;;;;;;-145.76;100.00;65039.31;4931929;28;20046;-69
2022/05/23 02:27:21;;;;;;;9.27;5.60;;;;;;;-145.76;100.00;65039.31;4947744;28;20044;-69
2022/05/23 02:29:47;;;;;;;12.20;5.80;;;;;;;-145.76;100.00;65039.31;4932288;28;20108;-69
2022/05/23 02:32:12;;;;;;;9.80;5.30;;;;;;;-145.76;100.00;65039.31;4948209;28;25154;-69
2022/05/23 02:34:41;;;;;;;11.75;5.82;;;;;;;-145.76;100.00;65039.31;4942043;28;20128;-69
2022/05/23 02:37:06;;;;;;;11.05;5.13;;;;;;;-145.76;100.00;65039.31;4937203;28;22441;-69
2022/05/23 02:39:32;;;;;;;10.95;5.22;;;;;;;-145.76;100.00;65039.31;4947126;28;20117;-69
2022/05/23 02:41:57;;;;;;;13.35;5.03;;;;;;;-145.76;100.00;65039.31;4931270;28;20155;-69
2022/05/23 02:44:22;;;;;;;9.27;4.70;;;;;;;-145.76;100.00;65039.31;4947604;28;20026;-69
2022/05/23 02:46:48;;;;;;;10.38;4.85;;;;;;;-145.76;100.00;65039.31;4928530;28;21349;-69
2022/05/23 02:49:13;;;;;;;8.43;4.65;;;;;;;-145.76;100.00;65039.31;4947087;28;20369;-69
2022/05/23 02:51:39;;;;;;;11.50;5.18;;;;;;;-145.76;100.00;65039.31;4923240;28;20167;-69
2022/05/23 02:54:04;;;;;;;10.07;5.45;;;;;;;-145.76;100.00;65039.31;4944056;28;20074;-69
2022/05/23 02:56:31;;;;;;;7.28;4.53;;;;;;;-145.76;100.00;65039.31;4943269;28;20041;-70
2022/05/23 02:58:56;;;;;;;7.25;4.55;;;;;;;-145.76;100.00;65039.31;4926196;28;20514;-69
2022/05/23 03:01:22;;;;;;;8.38;4.55;;;;;;;-145.76;100.00;65039.31;4940625;28;20754;-70
2022/05/23 03:03:47;;;;;;;8.20;4.63;;;;;;;-145.76;100.00;65039.31;4925340;28;20038;-70
2022/05/23 03:06:13;;;;;;;6.88;3.65;;;;;;;-145.76;100.00;65039.31;4944628;28;20038;-70
2022/05/23 03:08:38;;;;;;;10.10;4.50;;;;;;;-145.76;100.00;65039.31;4928633;28;20049;-70
2022/05/23 03:11:06;;;;;;;8.10;4.10;;;;;;;-145.76;100.00;65039.31;4945221;28;20046;-69
2022/05/23 03:13:31;;;;;;;11.55;4.97;;;;;;;-145.76;100.00;65039.31;4915428;28;21775;-70
2022/05/23 03:15:57;;;;;;;7.25;4.90;;;;;;;-145.76;100.00;65039.31;4946393;28;20254;-70
2022/05/23 03:18:24;;;;;;;7.38;4.05;;;;;;;-145.76;100.00;65039.31;4946242;28;20038;-70
2022/05/23 03:21:05;;;;;;;9.40;4.55;;;;;;;-145.76;100.00;65039.31;4913270;28;20048;-70
2022/05/23 03:29:00;;;;;;;8.75;5.00;;;;;;;-145.76;100.00;65039.31;4942219;28;20057;-70
2022/05/23 03:31:27;;;;;;;12.38;4.63;;;;;;;-145.76;100.00;65039.31;4925959;28;20038;-70
2022/05/23 03:33:53;;;;;;;7.95;4.40;;;;;;;-145.76;100.00;65039.31;4945707;28;20044;-70
2022/05/23 03:36:19;;;;;;;11.68;4.93;;;;;;;-145.76;100.00;65039.31;4931900;28;20041;-70
2022/05/23 03:38:44;;;;;;;10.55;5.00;;;;;;;-145.76;100.00;65039.31;4943687;28;20096;-70
2022/05/23 03:41:10;;;;;;;14.07;5.78;;;;;;;-145.76;100.00;65039.31;4932216;28;20034;-70
2022/05/23 03:43:36;;;;;;;9.77;5.55;;;;;;;-145.76;100.00;65039.31;4947931;28;20053;-70
2022/05/23 03:46:10;;;;;;;13.27;5.90;;;;;;;-145.76;100.00;65039.31;4942732;28;20034;-70
2022/05/23 03:48:36;;;;;;;11.48;5.20;;;;;;;-145.76;100.00;65039.31;4930831;28;20054;-70
2022/05/23 03:51:02;;;;;;;10.70;5.65;;;;;;;-145.76;100.00;65039.31;4943013;28;22737;-70
2022/05/23 03:53:29;;;;;;;9.68;4.97;;;;;;;-145.76;100.00;65039.31;4943567;28;20057;-70
2022/05/23 03:55:56;;;;;;;12.32;5.65;;;;;;;-145.76;100.00;65039.31;4946478;28;20808;-71
2022/05/23 03:58:22;;;;;;;11.88;5.43;;;;;;;-145.76;100.00;65039.31;4929414;28;20401;-71
2022/05/23 04:00:49;;;;;;;10.70;5.57;;;;;;;-145.76;100.00;65039.31;4944448;28;22650;-71
2022/05/23 04:03:18;;;;;;;9.57;5.05;;;;;;;-145.76;100.00;65039.31;4932848;28;20129;-71
2022/05/23 04:05:45;;;;;;;9.25;5.03;;;;;;;-145.76;100.00;65039.31;4944972;28;20701;-72
2022/05/23 04:08:11;;;;;;;9.93;5.47;;;;;;;-145.76;100.00;65039.31;4939445;28;20076;-71
2022/05/23 04:10:38;;;;;;;10.48;5.72;;;;;;;-145.76;100.00;65039.31;4928801;28;20076;-72
2022/05/23 04:13:04;;;;;;;11.60;5.53;;;;;;;-145.76;100.00;65039.31;4942285;28;20068;-72
2022/05/23 04:15:30;;;;;;;11.50;5.82;;;;;;;-145.76;100.00;65039.31;4929808;28;20191;-71
2022/05/23 04:17:55;;;;;;;10.80;5.75;;;;;;;-145.76;100.00;65039.31;4945299;28;20038;-71
2022/05/23 04:20:22;;;;;;;10.32;6.38;;;;;;;-145.76;100.00;65039.31;4924850;28;20042;-71
2022/05/23 04:22:47;;;;;;;11.90;5.40;;;;;;;-145.76;100.00;65039.31;4945271;28;20041;-71
2022/05/23 04:25:13;;;;;;;12.23;7.13;;;;;;;-145.76;100.00;65039.31;4935861;28;20026;-71
2022/05/23 04:27:38;;;;;;;11.38;5.70;;;;;;;-145.76;100.00;65039.31;4934028;28;20536;-71
2022/05/23 04:30:05;;;;;;;12.93;7.28;;;;;;;-145.76;100.00;65039.31;4920546;28;20041;-71
2022/05/23 04:35:15;;;;;;;10.07;7.38;;;;;;;-145.76;100.00;65039.31;4941526;28;23815;-71
2022/05/23 04:37:44;;;;;;;16.00;8.27;;;;;;;-145.76;100.00;65039.31;4925323;28;20049;-71
2022/05/23 04:40:11;;;;;;;13.88;7.57;;;;;;;-145.76;100.00;65039.31;4945117;28;20030;-71
2022/05/23 04:42:36;;;;;;;16.95;7.80;;;;;;;-145.76;100.00;65039.31;4923678;28;20089;-71
2022/05/23 04:45:03;;;;;;;11.07;7.78;;;;;;;-145.76;100.00;65039.31;4943665;28;20268;-71
2022/05/23 04:50:12;;;;;;;12.40;7.25;;;;;;;-145.76;100.00;65039.31;4945092;28;20196;-71
2022/05/23 04:52:37;;;;;;;12.45;8.88;;;;;;;-145.76;100.00;65039.31;4944160;28;20489;-71
2022/05/23 04:55:04;;;;;;;11.88;7.47;;;;;;;-145.76;100.00;65039.31;4927379;28;20069;-71
2022/05/23 04:57:29;;;;;;;10.57;6.80;;;;;;;-145.76;100.00;65039.31;4940901;28;20561;-71
2022/05/23 04:59:55;;;;;;;10.18;7.28;;;;;;;-145.76;100.00;65039.31;4929891;28;20053;-71
2022/05/23 05:02:20;;;;;;;13.52;6.10;;;;;;;-145.76;100.00;65039.31;4942260;28;20041;-71
2022/05/23 05:04:45;;;;;;;10.38;6.90;;;;;;;-145.76;100.00;65039.31;4918301;28;20053;-72
2022/05/23 05:07:11;;;;;;;12.65;6.60;;;;;;;-145.76;100.00;65039.31;4944868;28;20072;-71
2022/05/23 05:09:36;;;;;;;13.23;5.85;;;;;;;-145.76;100.00;65039.31;4929414;28;20072;-71
2022/05/23 05:12:02;;;;;;;9.38;6.10;;;;;;;-145.76;100.00;65039.31;4938559;28;20038;-71
2022/05/23 05:14:27;;;;;;;9.50;6.38;;;;;;;-145.76;100.00;65039.31;4937167;28;20033;-71
2022/05/23 05:16:53;;;;;;;10.25;5.90;;;;;;;-145.76;100.00;65039.31;4927192;28;20034;-71
2022/05/23 05:19:19;;;;;;;13.38;5.70;;;;;;;-145.76;100.00;65039.31;4942292;28;20473;-71
2022/05/23 05:21:45;;;;;;;10.20;5.10;;;;;;;-145.76;100.00;65039.31;4927391;28;20061;-71
2022/05/23 05:24:10;;;;;;;11.57;5.07;;;;;;;-145.76;100.00;65039.31;4942766;28;20049;-71
2022/05/23 05:26:36;;;;;;;7.10;4.30;;;;;;;-145.76;100.00;65039.31;4928513;28;20042;-71
2022/05/23 05:29:02;;;;;;;17.40;4.70;;;;;;;-145.76;100.00;65039.31;4940710;28;20179;-72
2022/05/23 05:31:36;;;;;;;6.38;3.97;;;;;;;-145.76;100.00;65039.31;4940823;28;20034;-72
2022/05/23 05:34:11;;;;;;;10.55;5.68;;;;;;;-145.76;100.00;65039.31;4931861;28;20057;-71
2022/05/23 05:36:39;;;;;;;10.00;5.38;;;;;;;-145.76;100.00;65039.31;4940732;28;20115;-71
2022/05/23 05:39:06;;;;;;;16.42;6.82;;;;;;;-145.76;100.00;65039.31;4926973;28;20120;-72
2022/05/23 05:41:42;;;;;;;8.80;5.65;;;;;;;-145.76;100.00;65039.31;4943743;28;20486;-70
2022/05/23 05:44:10;;;;;;;16.25;6.85;;;;;;;-145.76;100.00;65039.31;4927918;28;20808;-69
2022/05/23 05:46:46;;;;;;;9.57;6.00;;;;;;;-145.76;100.00;65039.31;4942717;28;24641;-72
2022/05/23 05:49:16;;;;;;;13.20;6.60;;;;;;;-145.76;100.00;65039.31;4925991;28;20533;-71
2022/05/23 05:51:41;;;;;;;8.77;5.80;;;;;;;-145.76;100.00;65039.31;4942845;28;20038;-72
2022/05/23 05:54:09;;;;;;;17.08;6.97;;;;;;;-145.76;100.00;65039.31;4928010;28;20904;-72
2022/05/23 05:56:34;;;;;;;11.90;6.18;;;;;;;-145.76;100.00;65039.31;4939432;28;20545;-72
2022/05/23 05:59:00;;;;;;;12.27;7.10;;;;;;;-145.76;100.00;65039.31;4944310;28;20037;-72
2022/05/23 06:01:25;;;;;;;13.30;6.55;;;;;;;-145.76;100.00;65039.31;4929466;28;20046;-72
2022/05/23 06:03:51;;;;;;;12.93;6.80;;;;;;;-145.76;100.00;65039.31;4943110;28;20057;-72
2022/05/23 06:11:44;;;;;;;12.65;8.23;;;;;;;-145.76;100.00;65039.31;4927169;28;20196;-72
2022/05/23 06:14:09;;;;;;;15.00;7.70;;;;;;;-145.76;100.00;65039.31;4945451;28;20063;-71
2022/05/23 06:16:37;;;;;;;15.18;7.65;;;;;;;-145.76;100.00;65039.31;4925766;28;20046;-71
2022/05/23 06:19:03;;;;;;;16.67;8.25;;;;;;;-145.76;100.00;65039.31;4944572;28;20045;-71
2022/05/23 06:21:29;;;;;;;16.60;7.57;;;;;;;-145.76;100.00;65039.31;4932990;28;20037;-72
2022/05/23 06:23:55;;;;;;;14.48;8.43;;;;;;;-145.76;100.00;65039.31;4944105;28;20076;-71
2022/05/23 06:26:22;;;;;;;13.90;8.05;;;;;;;-145.76;100.00;65039.31;4936692;28;20033;-72
2022/05/23 06:28:50;;;;;;;18.73;7.93;;;;;;;-145.76;100.00;65039.31;4927320;28;20081;-72
2022/05/23 06:31:16;;;;;;;16.88;8.82;;;;;;;-145.76;100.00;65039.31;4943461;28;20034;-71
2022/05/23 06:33:42;;;;;;;15.10;7.43;;;;;;;-145.76;100.00;65039.31;4926786;28;20173;-71
2022/05/23 06:36:08;;;;;;;14.85;6.78;;;;;;;-145.76;100.00;65039.31;4938277;28;20026;-70
2022/05/23 06:38:35;;;;;;;11.20;7.00;;;;;;;-145.76;100.00;65039.31;4932546;28;20202;-70
2022/05/23 06:41:01;;;;;;;12.98;7.03;;;;;;;-145.76;100.00;65039.31;4936224;28;20041;-71
2022/05/23 06:43:28;;;;;;;14.23;7.90;;;;;;;-145.76;100.00;65039.31;4934504;28;20034;-70
2022/05/23 06:45:54;;;;;;;21.55;7.28;;;;;;;-145.76;100.00;65039.31;4930146;28;20152;-71
2022/05/23 06:48:19;;;;;;;13.27;6.10;;;;;;;-145.76;100.00;65039.31;4940040;28;20038;-70
2022/05/23 06:50:47;;;;;;;10.73;5.35;;;;;;;-145.76;100.00;65039.31;4923272;28;20164;-71
2022/05/23 06:53:13;;;;;;;12.38;5.78;;;;;;;-145.76;100.00;65039.31;4940419;28;20030;-71
2022/05/23 06:55:38;;;;;;;12.85;5.47;;;;;;;-145.76;100.00;65039.31;4919125;28;20042;-71
2022/05/23 06:58:04;;;;;;;11.23;5.82;;;;;;;-145.76;100.00;65039.31;4938272;28;20033;-71
2022/05/23 07:00:29;;;;;;;15.70;5.57;;;;;;;-145.76;100.00;65039.31;4923347;28;20069;-71
2022/05/23 07:02:55;;;;;;;9.50;4.90;;;;;;;-145.76;100.00;65039.31;4938573;28;20140;-71
2022/05/23 07:13:33;;;;;;;8.75;4.60;;;;;;;-145.76;100.00;65039.31;4927296;28;20883;-71
2022/05/23 07:15:59;;;;;;;11.88;5.10;;;;;;;-145.76;100.00;65039.31;4938475;28;20034;-71
2022/05/23 07:18:26;;;;;;;12.73;5.43;;;;;;;-145.76;100.00;65039.31;4924201;28;23453;-70
2022/05/23 07:20:52;;;;;;;10.73;4.80;;;;;;;-145.76;100.00;65039.31;4939472;28;20595;-71
2022/05/23 07:23:17;;;;;;;11.45;4.53;;;;;;;-145.76;100.00;65039.31;4926659;28;20037;-71
2022/05/23 07:25:43;;;;;;;9.77;5.35;;;;;;;-145.76;100.00;65039.31;4937760;28;20034;-71
2022/05/23 07:28:08;;;;;;;8.02;4.78;;;;;;;-145.76;100.00;65039.31;4919584;28;20046;-71
2022/05/23 07:30:34;;;;;;;10.93;4.72;;;;;;;-145.76;100.00;65039.31;4937610;28;20164;-71
2022/05/23 07:32:59;;;;;;;11.65;4.97;;;;;;;-145.76;100.00;65039.31;4936902;28;20060;-71
2022/05/23 07:35:25;;;;;;;14.80;4.63;;;;;;;-145.76;100.00;65039.31;4923786;28;20038;-71
2022/05/23 07:37:51;;;;;;;8.35;4.80;;;;;;;-145.76;100.00;65039.31;4937580;28;21232;-72
2022/05/23 07:40:17;;;;;;;12.73;4.45;;;;;;;-145.76;100.00;65039.31;4919251;28;20050;-72
2022/05/23 07:42:43;;;;;;;9.38;5.38;;;;;;;-145.76;100.00;65039.31;4939289;28;20042;-71
2022/05/23 07:45:09;;;;;;;9.93;5.30;;;;;;;-145.76;100.00;65039.31;4920992;28;20094;-71
2022/05/23 07:47:35;;;;;;;13.50;5.30;;;;;;;-145.76;100.00;65039.31;4936255;28;20112;-71
2022/05/23 07:50:01;;;;;;;9.38;5.07;;;;;;;-145.76;100.00;65039.31;4927705;28;20168;-71
2022/05/23 07:52:26;;;;;;;12.18;4.88;;;;;;;-145.76;100.00;65039.31;4946262;28;20033;-70
2022/05/23 08:00:33;;;;;;;8.82;5.10;;;;;;;-145.76;100.00;65039.31;4943797;28;20124;-71
2022/05/23 08:03:13;;;;;;;10.65;5.40;;;;;;;-145.76;100.00;65039.31;4918349;28;20038;-71
2022/05/23 08:05:39;;;;;;;10.40;5.60;;;;;;;-145.76;100.00;65039.31;4943477;28;20046;-72
2022/05/23 08:08:04;;;;;;;10.63;5.35;;;;;;;-145.76;100.00;65039.31;4927950;28;20362;-71
2022/05/23 08:10:30;;;;;;;13.32;5.47;;;;;;;-145.76;100.00;65039.31;4942806;28;20050;-71
2022/05/23 08:12:57;;;;;;;10.93;5.15;;;;;;;-145.76;100.00;65039.31;4929076;28;20046;-71
2022/05/23 08:15:25;;;;;;;8.07;4.80;;;;;;;-145.76;100.00;65039.31;4941603;28;20141;-72
2022/05/23 08:17:50;;;;;;;12.10;5.20;;;;;;;-145.76;100.00;65039.31;4930175;28;20053;-72
2022/05/23 08:20:16;;;;;;;15.07;5.45;;;;;;;-145.76;100.00;65039.31;4946254;28;20581;-70
2022/05/23 08:22:41;;;;;;;10.00;4.97;;;;;;;-145.76;100.00;65039.31;4946137;28;20036;-70
2022/05/23 08:25:08;;;;;;;10.05;5.10;;;;;;;-145.76;100.00;65039.31;4929868;28;20192;-70
2022/05/23 08:27:34;;;;;;;12.95;4.65;;;;;;;-145.76;100.00;65039.31;4938593;28;20107;-70
2022/05/23 08:30:01;;;;;;;7.78;4.25;;;;;;;-145.76;100.00;65039.31;4926124;28;20600;-70
2022/05/23 08:32:26;;;;;;;9.55;4.97;;;;;;;-145.76;100.00;65039.31;4944263;28;20164;-70
2022/05/23 08:34:52;;;;;;;8.65;4.90;;;;;;;-145.76;100.00;65039.31;4925356;28;20050;-70
2022/05/23 08:37:18;;;;;;;11.38;6.10;;;;;;;-145.76;100.00;65039.31;4942043;28;20033;-70
2022/05/23 08:39:43;;;;;;;9.85;5.35;;;;;;;-145.76;100.00;65039.31;4929202;28;20463;-71
2022/05/23 08:42:16;;;;;;;9.40;4.95;;;;;;;-145.76;100.00;65039.31;4941925;28;20108;-71
2022/05/23 08:44:48;;;;;;;14.10;5.78;;;;;;;-145.76;100.00;65039.31;4943551;28;20061;-71
2022/05/23 08:47:17;;;;;;;10.43;5.35;;;;;;;-145.76;100.00;65039.31;4927044;28;20199;-70
2022/05/23 08:49:46;;;;;;;11.00;5.65;;;;;;;-145.76;100.00;65039.31;4944315;28;20046;-71
2022/05/23 08:52:18;;;;;;;12.27;4.88;;;;;;;-145.76;100.00;65039.31;4925377;28;20096;-71
2022/05/23 08:55:01;;;;;;;9.45;4.97;;;;;;;-145.76;100.00;65039.31;4941968;28;20026;-71
2022/05/23 08:57:42;;;;;;;9.40;5.00;;;;;;;-145.76;100.00;65039.31;4930634;28;20054;-70
2022/05/23 09:00:11;;;;;;;8.10;4.43;;;;;;;-145.76;100.00;65039.31;4923966;28;20030;-71
2022/05/23 09:02:44;;;;;;;9.38;4.85;;;;;;;-145.76;100.00;65039.31;4938344;28;20057;-74
2022/05/23 09:05:16;;;;;;;8.40;4.72;;;;;;;-145.76;100.00;65039.31;4944477;28;20038;-72
2022/05/23 09:07:47;;;;;;;7.03;4.43;;;;;;;-145.76;100.00;65039.31;4925133;28;20074;-69
2022/05/23 09:10:32;;;;;;;7.72;4.38;;;;;;;-145.76;100.00;65039.31;4927040;28;20305;-72
2022/05/23 09:12:57;;;;;;;7.28;3.63;;;;;;;-145.76;100.00;65039.31;4926354;28;20108;-72
2022/05/23 09:15:23;;;;;;;8.50;3.97;;;;;;;-145.76;100.00;65039.31;4944016;28;20562;-72
2022/05/23 09:17:53;;;;;;;10.65;3.85;;;;;;;-145.76;100.00;65039.31;4918547;28;20041;-71
2022/05/23 09:20:54;;;;;;;7.80;3.70;;;;;;;-145.76;100.00;65039.31;4926363;28;20046;-72
2022/05/23 09:23:36;;;;;;;10.10;4.75;;;;;;;-145.76;100.00;65039.31;4936458;28;20038;-71
2022/05/23 09:26:04;;;;;;;12.95;4.70;;;;;;;-145.76;100.00;65039.31;4926979;28;20096;-71
2022/05/23 09:28:34;;;;;;;7.88;3.97;;;;;;;-145.76;100.00;65039.31;4942646;28;22708;-71
2022/05/23 09:31:14;;;;;;;6.15;3.65;;;;;;;-145.76;100.00;65039.31;4926759;28;20041;-71
2022/05/23 09:33:46;;;;;;;9.18;4.32;;;;;;;-145.76;100.00;65039.31;4945239;28;21137;-71
2022/05/23 09:36:21;;;;;;;8.55;4.38;;;;;;;-145.76;100.00;65039.31;4923132;28;21055;-71
2022/05/23 09:38:54;;;;;;;8.07;3.42;;;;;;;-145.76;100.00;65039.31;4944124;28;20041;-71
2022/05/23 09:47:44;;;;;;;9.98;3.95;;;;;;;-145.76;100.00;65039.31;4924805;28;20038;-71
2022/05/23 09:49:47;;;;;;;8.77;3.92;;;;;;;-145.76;100.00;65039.31;4943203;28;20060;-71
2022/05/23 09:52:49;;;;;;;7.47;4.22;;;;;;;-145.76;100.00;65039.31;4933751;28;20030;-71
2022/05/23 09:55:23;;;;;;;7.13;3.60;;;;;;;-145.76;100.00;65039.31;4924694;28;20030;-71
2022/05/23 09:57:52;;;;;;;6.85;3.10;;;;;;;-145.76;100.00;65039.31;4928757;28;20038;-71
2022/05/23 10:00:18;;;;;;;10.82;3.40;;;;;;;-145.76;100.00;65039.31;4942579;28;20049;-73
2022/05/23 10:03:01;;;;;;;10.65;3.97;;;;;;;-145.76;100.00;65039.31;4930966;28;23500;-72
2022/05/23 10:05:34;;;;;;;8.18;3.35;;;;;;;-145.76;100.00;65039.31;4946557;28;20064;-72
2022/05/23 10:08:02;;;;;;;9.93;3.75;;;;;;;-145.76;100.00;65039.31;4934068;28;20050;-73
2022/05/23 10:10:33;;;;;;;8.13;3.50;;;;;;;-145.76;100.00;65039.31;4933342;28;20081;-73
2022/05/23 10:13:20;;;;;;;8.65;3.25;;;;;;;-145.76;100.00;65039.31;4929645;28;20037;-72
2022/05/23 10:15:47;;;;;;;5.03;2.85;;;;;;;-145.76;100.00;65039.31;4927194;28;20083;-72
2022/05/23 10:18:35;;;;;;;11.55;3.08;;;;;;;-145.76;100.00;65039.31;4947229;28;20038;-72
2022/05/23 10:21:02;;;;;;;6.47;2.67;;;;;;;-145.76;100.00;65039.31;4931041;28;20068;-72
2022/05/23 10:23:30;;;;;;;5.43;2.40;;;;;;;-145.76;100.00;65039.31;4945943;28;20509;-72
2022/05/23 10:26:05;;;;;;;5.60;2.63;;;;;;;-145.76;100.00;65039.31;4932233;28;20053;-73
2022/05/23 10:28:36;;;;;;;7.75;3.30;;;;;;;-145.76;100.00;65039.31;4945797;28;20039;-72
2022/05/23 10:31:09;;;;;;;11.48;3.60;;;;;;;-145.76;100.00;65039.31;4930411;28;20054;-72
2022/05/23 10:33:36;;;;;;;10.43;3.83;;;;;;;-145.76;100.00;65039.31;4944622;28;20240;-72
2022/05/23 10:36:23;;;;;;;6.00;2.78;;;;;;;-145.76;100.00;65039.31;4945055;28;20168;-72
2022/05/23 10:42:13;;;;;;;8.65;3.30;;;;;;;-145.76;100.00;65039.31;4943440;28;20046;-72
2022/05/23 10:45:08;;;;;;;9.05;3.55;;;;;;;-145.76;100.00;65039.31;4943173;28;24595;-72
2022/05/23 10:48:24;;;;;;;5.97;3.22;;;;;;;-145.76;100.00;65039.31;4893942;28;20070;-72
2022/05/23 10:51:05;;;;;;;8.27;3.35;;;;;;;-145.76;100.00;65039.31;4934730;28;20054;-72
2022/05/23 10:53:55;;;;;;;11.00;3.80;;;;;;;-145.76;100.00;65039.31;4927983;28;20042;-71
2022/05/23 10:56:29;;;;;;;8.88;3.08;;;;;;;-145.76;100.00;65039.31;4948027;28;20045;-71
2022/05/23 10:59:02;;;;;;;6.50;3.63;;;;;;;-145.76;100.00;65039.31;4932955;28;20052;-72
2022/05/23 11:02:00;;;;;;;13.82;4.03;;;;;;;-145.76;100.00;65039.31;4945779;28;21591;-72
2022/05/23 11:04:28;;;;;;;7.40;2.72;;;;;;;-145.76;100.00;65039.31;4927541;28;20103;-72
2022/05/23 11:07:15;;;;;;;7.57;2.97;;;;;;;-145.76;100.00;65039.31;4942125;28;20621;-72
2022/05/23 11:09:59;;;;;;;5.03;2.45;;;;;;;-145.76;100.00;65039.31;4933474;28;20054;-71
2022/05/23 11:12:57;;;;;;;10.20;2.45;;;;;;;-145.76;100.00;65039.31;4943944;28;20037;-71
2022/05/23 11:15:43;;;;;;;6.43;2.10;;;;;;;-145.76;100.00;65039.31;4948568;28;20367;-71
2022/05/23 11:18:28;;;;;;;7.82;2.67;;;;;;;-145.76;100.00;65039.31;4946513;28;20041;-71
2022/05/23 11:20:57;;;;;;;11.13;2.20;;;;;;;-145.76;100.00;65039.31;4927391;28;20038;-72
2022/05/23 11:23:48;;;;;;;5.90;2.20;;;;;;;-145.76;100.00;65039.31;4944030;28;20130;-72
2022/05/23 11:26:22;;;;;;;4.30;2.03;;;;;;;-145.76;100.00;65039.31;4930489;28;20059;-72
2022/05/23 11:34:40;;;;;;;8.05;2.55;;;;;;;-145.76;100.00;65039.31;4939505;28;20110;-72
2022/05/23 11:39:49;;;;;;;6.88;2.13;;;;;;;-145.76;100.00;65039.31;4940111;28;20034;-71
2022/05/23 11:42:30;;;;;;;6.97;2.63;;;;;;;-145.76;100.00;65039.31;4937857;28;20454;-72
2022/05/23 11:45:57;;;;;;;6.15;1.80;;;;;;;-145.76;100.00;65039.31;4945143;28;20100;-72
2022/05/23 11:47:57;;;;;;;5.18;2.25;;;;;;;-145.76;100.00;65039.31;4926276;28;20041;-72
2022/05/23 11:50:29;;;;;;;7.55;2.20;;;;;;;-145.76;100.00;65039.31;4941933;28;20848;-72
2022/05/23 11:53:10;;;;;;;7.40;2.00;;;;;;;-145.76;100.00;65039.31;4941290;28;20041;-72
2022/05/23 11:55:51;;;;;;;13.68;2.22;;;;;;;-145.76;100.00;65039.31;4930517;28;20093;-68
2022/05/23 11:58:36;;;;;;;4.82;2.13;;;;;;;-145.76;100.00;65039.31;4944225;28;20041;-72
2022/05/23 12:01:05;;;;;;;3.63;1.85;;;;;;;-145.76;100.00;65039.31;4929110;28;20056;-72
2022/05/23 12:03:49;;;;;;;3.30;1.70;;;;;;;-145.76;100.00;65039.31;4943998;28;20034;-73
2022/05/23 12:06:24;;;;;;;7.30;1.73;;;;;;;-145.76;100.00;65039.31;4931758;28;20045;-73
2022/05/23 12:09:25;;;;;;;9.82;2.13;;;;;;;-145.76;100.00;65039.31;4943376;28;20042;-74
2022/05/23 12:11:52;;;;;;;4.00;1.73;;;;;;;-145.76;100.00;65039.31;4927267;28;20042;-73